createdAt,value
2024-03-15T00:00:15.719Z,9.51
2024-03-15T00:02:43.562Z,9.42
2024-03-15T00:05:10.407Z,9.25
2024-03-15T00:07:36.806Z,9.16
2024-03-15T00:10:03.312Z,9.14
2024-03-15T00:12:29.794Z,9.18
2024-03-15T00:14:56.597Z,9.22
2024-03-15T00:17:23.313Z,9.24
2024-03-15T00:19:49.856Z,9.29
2024-03-15T00:22:16.369Z,9.31
2024-03-15T00:24:43.170Z,9.38
2024-03-15T00:27:09.799Z,9.45
2024-03-15T00:29:38.190Z,9.53
2024-03-15T00:32:07.111Z,9.61
2024-03-15T00:34:36.495Z,9.62
2024-03-15T00:37:03.477Z,9.62
2024-03-15T00:39:30.105Z,9.59
2024-03-15T00:41:57.179Z,9.55
2024-03-15T00:44:23.838Z,9.54
2024-03-15T00:46:51.118Z,9.53
2024-03-15T00:49:17.677Z,9.52
2024-03-15T00:51:44.265Z,9.47
2024-03-15T00:54:10.795Z,9.53
2024-03-15T00:56:37.871Z,9.57
2024-03-15T00:59:04.277Z,9.53
2024-03-15T01:01:30.883Z,9.51
2024-03-15T01:03:57.384Z,9.66
2024-03-15T01:06:24.825Z,9.57
2024-03-15T01:08:52.657Z,9.54
2024-03-15T01:11:19.233Z,9.66
2024-03-15T01:13:45.853Z,9.63
2024-03-15T01:16:12.611Z,9.59
2024-03-15T01:18:40.081Z,9.61
2024-03-15T01:21:06.516Z,9.63
2024-03-15T01:23:33.391Z,9.59
2024-03-15T01:25:59.735Z,9.53
2024-03-15T01:28:26.415Z,9.51
2024-03-15T01:30:52.954Z,9.50
2024-03-15T01:33:19.592Z,9.56
2024-03-15T01:35:46.137Z,9.57
2024-03-15T01:38:12.624Z,9.60
2024-03-15T01:40:39.095Z,9.62
2024-03-15T01:43:05.644Z,9.60
2024-03-15T01:45:33.172Z,9.54
2024-03-15T01:48:00.228Z,9.53
2024-03-15T01:50:27.876Z,9.57
2024-03-15T01:52:56.081Z,9.49
2024-03-15T01:55:24.095Z,9.52
2024-03-15T01:57:50.681Z,9.51
2024-03-15T02:00:18.029Z,9.51
2024-03-15T02:02:45.156Z,9.48
2024-03-15T02:05:21.233Z,9.47
2024-03-15T02:07:47.858Z,9.44
2024-03-15T02:10:15.292Z,9.48
2024-03-15T02:12:41.944Z,9.51
2024-03-15T02:15:08.896Z,9.57
2024-03-15T02:17:38.516Z,9.60
2024-03-15T02:20:07.598Z,9.70
2024-03-15T02:22:34.346Z,9.54
2024-03-15T02:25:01.030Z,9.63
2024-03-15T02:27:29.901Z,9.58
2024-03-15T02:29:56.771Z,9.52
2024-03-15T02:32:25.984Z,9.48
2024-03-15T02:34:53.055Z,9.51
2024-03-15T02:37:19.630Z,9.52
2024-03-15T02:39:47.354Z,9.47
2024-03-15T02:42:14.092Z,9.50
2024-03-15T02:44:40.687Z,9.45
2024-03-15T02:47:07.714Z,9.47
2024-03-15T02:49:34.087Z,9.39
2024-03-15T02:52:00.413Z,9.35
2024-03-15T02:54:28.036Z,9.36
2024-03-15T02:56:54.433Z,9.32
2024-03-15T02:59:21.091Z,9.29
2024-03-15T03:01:47.667Z,9.32
2024-03-15T03:04:14.530Z,9.35
2024-03-15T03:06:42.681Z,9.37
2024-03-15T03:09:10.777Z,9.42
2024-03-15T03:11:38.150Z,9.44
2024-03-15T03:14:06.043Z,9.47
2024-03-15T03:16:35.260Z,9.55
2024-03-15T03:19:02.237Z,9.65
2024-03-15T03:21:28.702Z,9.63
2024-03-15T03:23:58.189Z,9.63
2024-03-15T03:26:27.551Z,9.63
2024-03-15T03:28:54.684Z,9.62
2024-03-15T03:31:21.041Z,9.62
2024-03-15T03:33:47.471Z,9.66
2024-03-15T03:36:14.058Z,9.66
2024-03-15T03:38:43.450Z,9.76
2024-03-15T03:41:10.307Z,9.75
2024-03-15T03:43:38.407Z,9.74
2024-03-15T03:46:08.187Z,9.75
2024-03-15T03:48:34.853Z,9.79
2024-03-15T03:51:05.567Z,9.82
2024-03-15T03:53:32.046Z,9.87
2024-03-15T03:55:58.488Z,9.85
2024-03-15T03:58:25.212Z,9.83
2024-03-15T04:00:52.034Z,9.83
2024-03-15T04:03:18.718Z,9.83
2024-03-15T04:05:45.219Z,9.78
2024-03-15T04:08:14.586Z,9.77
2024-03-15T04:10:41.007Z,9.74
2024-03-15T04:13:08.179Z,9.74
2024-03-15T04:15:34.968Z,9.77
2024-03-15T04:18:03.798Z,9.78
2024-03-15T04:20:31.134Z,9.77
2024-03-15T04:22:58.189Z,9.79
2024-03-15T04:25:25.227Z,9.85
2024-03-15T04:27:54.700Z,9.84
2024-03-15T04:30:23.726Z,9.81
2024-03-15T04:32:57.292Z,9.84
2024-03-15T04:35:24.365Z,9.88
2024-03-15T04:37:51.044Z,9.80
2024-03-15T04:40:17.594Z,9.76
2024-03-15T04:42:44.238Z,9.71
2024-03-15T04:45:11.585Z,9.68
2024-03-15T04:47:45.057Z,9.63
2024-03-15T04:50:12.129Z,9.52
2024-03-15T04:52:38.940Z,9.46
2024-03-15T04:55:05.655Z,9.37
2024-03-15T04:57:32.296Z,9.30
2024-03-15T04:59:58.776Z,9.23
2024-03-15T05:02:25.279Z,9.17
2024-03-15T05:04:52.412Z,9.15
2024-03-15T05:07:18.946Z,9.15
2024-03-15T05:09:45.768Z,9.12
2024-03-15T05:12:14.014Z,9.10
2024-03-15T05:14:40.840Z,9.09
2024-03-15T05:17:07.404Z,9.12
2024-03-15T05:19:38.877Z,9.23
2024-03-15T05:22:06.410Z,9.16
2024-03-15T05:24:33.255Z,9.13
2024-03-15T05:26:59.902Z,9.09
2024-03-15T05:29:26.601Z,9.08
2024-03-15T05:31:53.391Z,9.08
2024-03-15T05:34:19.985Z,9.13
2024-03-15T05:36:46.655Z,9.12
2024-03-15T05:39:13.273Z,9.11
2024-03-15T05:41:42.544Z,9.11
2024-03-15T05:44:10.818Z,9.10
2024-03-15T05:46:38.020Z,9.13
2024-03-15T05:49:04.525Z,9.10
2024-03-15T05:51:32.294Z,9.11
2024-03-15T05:53:58.815Z,9.12
2024-03-15T05:56:25.149Z,9.13
2024-03-15T05:58:52.607Z,9.22
2024-03-15T06:01:18.994Z,9.19
2024-03-15T06:03:45.652Z,9.17
2024-03-15T06:06:12.803Z,9.19
2024-03-15T06:08:39.239Z,9.12
2024-03-15T06:11:08.147Z,9.16
2024-03-15T06:13:37.174Z,9.11
2024-03-15T06:16:05.980Z,9.14
2024-03-15T06:18:34.618Z,9.18
2024-03-15T06:21:01.324Z,9.27
2024-03-15T06:23:28.966Z,9.30
2024-03-15T06:25:55.392Z,9.35
2024-03-15T06:28:22.003Z,9.45
2024-03-15T06:30:54.528Z,9.52
2024-03-15T06:33:22.433Z,9.67
2024-03-15T06:35:52.205Z,9.74
2024-03-15T06:38:29.437Z,9.83
2024-03-15T06:41:11.833Z,10.00
2024-03-15T06:43:45.064Z,10.14
2024-03-15T06:46:21.496Z,10.28
2024-03-15T06:49:03.511Z,10.49
2024-03-15T06:51:48.665Z,10.62
2024-03-15T06:54:16.823Z,10.73
2024-03-15T06:56:43.508Z,10.86
2024-03-15T06:59:13.496Z,11.04
2024-03-15T07:01:40.147Z,11.23
2024-03-15T07:04:09.869Z,11.40
2024-03-15T07:06:36.868Z,11.72
2024-03-15T07:09:12.335Z,11.70
2024-03-15T07:11:38.822Z,12.02
2024-03-15T07:14:06.139Z,11.89
2024-03-15T07:16:33.322Z,11.94
2024-03-15T07:19:00.805Z,12.15
2024-03-15T07:21:27.550Z,12.18
2024-03-15T07:23:54.044Z,12.32
2024-03-15T07:26:20.574Z,12.44
2024-03-15T07:28:46.984Z,12.52
2024-03-15T07:31:13.575Z,12.64
2024-03-15T07:33:40.167Z,12.68
2024-03-15T07:36:09.801Z,12.75
2024-03-15T07:38:36.756Z,12.86
2024-03-15T07:41:03.510Z,12.94
2024-03-15T07:43:30.039Z,12.99
2024-03-15T07:45:56.464Z,13.15
2024-03-15T07:48:23.422Z,13.13
2024-03-15T07:50:49.862Z,13.11
2024-03-15T07:53:16.760Z,13.17
2024-03-15T07:55:43.269Z,13.25
2024-03-15T07:58:10.178Z,13.38
2024-03-15T08:00:38.025Z,13.44
2024-03-15T08:03:04.544Z,13.59
2024-03-15T08:05:31.195Z,13.64
2024-03-15T08:07:58.877Z,13.72
2024-03-15T08:10:25.501Z,13.88
2024-03-15T08:12:52.152Z,13.82
2024-03-15T08:15:19.094Z,13.68
2024-03-15T08:17:50.195Z,13.54
2024-03-15T08:20:17.352Z,13.43
2024-03-15T08:22:43.848Z,13.34
2024-03-15T08:25:10.804Z,13.54
2024-03-15T08:27:38.454Z,13.69
2024-03-15T08:30:05.383Z,13.98
2024-03-15T08:32:32.014Z,14.28
2024-03-15T08:34:58.566Z,14.83
2024-03-15T08:37:25.542Z,14.88
2024-03-15T08:39:52.720Z,15.06
2024-03-15T08:42:19.567Z,15.49
2024-03-15T08:44:46.319Z,16.01
2024-03-15T08:47:13.356Z,16.44
2024-03-15T08:49:40.074Z,16.66
2024-03-15T08:52:06.772Z,16.62
2024-03-15T08:54:35.358Z,16.36
2024-03-15T08:57:06.127Z,16.19
2024-03-15T08:59:32.660Z,16.30
2024-03-15T09:01:59.102Z,15.83
2024-03-15T09:04:26.045Z,15.65
2024-03-15T09:06:53.054Z,15.20
2024-03-15T09:09:22.753Z,14.59
2024-03-15T09:11:50.754Z,14.12
2024-03-15T09:14:20.113Z,14.05
2024-03-15T09:16:48.144Z,13.86
2024-03-15T09:19:15.301Z,13.64
2024-03-15T09:21:42.424Z,13.90
2024-03-15T09:24:14.193Z,13.95
2024-03-15T09:26:41.468Z,13.86
2024-03-15T09:29:08.379Z,13.80
2024-03-15T09:31:52.764Z,14.41
2024-03-15T09:34:24.024Z,14.46
2024-03-15T09:36:50.554Z,14.51
2024-03-15T09:39:17.294Z,14.72
2024-03-15T09:41:44.024Z,14.62
2024-03-15T09:44:12.306Z,14.42
2024-03-15T09:46:39.163Z,14.22
2024-03-15T09:49:07.074Z,14.11
2024-03-15T09:51:34.256Z,14.59
2024-03-15T09:54:03.633Z,15.05
2024-03-15T09:56:30.887Z,15.09
2024-03-15T09:58:58.361Z,15.36
2024-03-15T10:01:25.219Z,15.48
2024-03-15T10:03:51.721Z,15.67
2024-03-15T10:06:19.019Z,15.39
2024-03-15T10:08:45.633Z,15.20
2024-03-15T10:11:12.124Z,15.50
2024-03-15T10:13:38.694Z,15.18
2024-03-15T10:16:09.650Z,15.09
2024-03-15T10:18:40.132Z,15.05
2024-03-15T10:21:06.811Z,15.19
2024-03-15T10:23:33.252Z,15.56
2024-03-15T10:26:02.026Z,15.61
2024-03-15T10:28:29.748Z,16.13
2024-03-15T10:30:59.173Z,15.86
2024-03-15T10:33:25.656Z,16.36
2024-03-15T10:35:52.924Z,16.63
2024-03-15T10:38:19.392Z,16.74
2024-03-15T10:40:46.961Z,16.46
2024-03-15T10:43:13.649Z,16.93
2024-03-15T10:45:49.701Z,16.77
2024-03-15T10:48:19.307Z,17.11
2024-03-15T10:50:46.925Z,17.48
2024-03-15T10:53:17.546Z,17.60
2024-03-15T10:55:43.997Z,17.31
2024-03-15T10:58:11.648Z,17.73
2024-03-15T11:00:38.736Z,17.64
2024-03-15T11:03:14.827Z,17.39
2024-03-15T11:05:42.767Z,17.57
2024-03-15T11:08:10.180Z,18.11
2024-03-15T11:10:37.393Z,18.11
2024-03-15T11:13:04.856Z,17.78
2024-03-15T11:15:38.174Z,17.71
2024-03-15T11:18:05.560Z,17.81
2024-03-15T11:20:45.670Z,17.93
2024-03-15T11:23:16.299Z,17.63
2024-03-15T11:25:53.446Z,17.40
2024-03-15T11:28:21.112Z,17.36
2024-03-15T11:30:47.585Z,17.54
2024-03-15T11:33:14.065Z,17.17
2024-03-15T11:35:42.313Z,17.54
2024-03-15T11:38:15.667Z,17.11
2024-03-15T11:40:42.485Z,16.82
2024-03-15T11:43:13.560Z,17.12
2024-03-15T11:45:42.840Z,17.14
2024-03-15T11:48:10.812Z,17.20
2024-03-15T11:50:37.382Z,17.27
2024-03-15T11:53:05.045Z,17.09
2024-03-15T11:55:32.331Z,17.00
2024-03-15T11:57:58.896Z,16.80
2024-03-15T12:00:25.854Z,16.71
2024-03-15T12:02:54.158Z,17.07
2024-03-15T12:05:20.832Z,17.11
2024-03-15T12:07:47.297Z,17.36
2024-03-15T12:10:17.138Z,17.22
2024-03-15T12:12:50.649Z,17.34
2024-03-15T12:15:28.482Z,16.99
2024-03-15T12:17:55.909Z,17.05
2024-03-15T12:20:22.421Z,17.34
2024-03-15T12:22:48.929Z,17.39
2024-03-15T12:25:15.258Z,17.48
2024-03-15T12:27:42.778Z,17.64
2024-03-15T12:30:11.895Z,17.80
2024-03-15T12:32:39.909Z,17.97
2024-03-15T12:35:07.418Z,18.27
2024-03-15T12:37:35.324Z,18.31
2024-03-15T12:40:02.014Z,18.15
2024-03-15T12:42:28.662Z,17.72
2024-03-15T12:44:55.018Z,17.71
2024-03-15T12:47:21.574Z,17.36
2024-03-15T12:49:47.928Z,17.37
2024-03-15T12:52:14.289Z,17.50
2024-03-15T12:54:41.578Z,17.77
2024-03-15T12:57:09.755Z,18.08
2024-03-15T12:59:36.569Z,17.93
2024-03-15T13:02:03.432Z,17.59
2024-03-15T13:04:29.974Z,17.44
2024-03-15T13:06:56.574Z,18.04
2024-03-15T13:09:23.134Z,17.69
2024-03-15T13:11:49.929Z,17.61
2024-03-15T13:14:16.416Z,17.37
2024-03-15T13:16:42.754Z,17.13
2024-03-15T13:19:10.573Z,17.23
2024-03-15T13:21:37.036Z,17.11
2024-03-15T13:24:04.864Z,16.78
2024-03-15T13:26:32.963Z,16.49
2024-03-15T13:29:00.010Z,16.51
2024-03-15T13:31:26.989Z,16.52
2024-03-15T13:33:53.431Z,16.33
2024-03-15T13:36:20.263Z,16.43
2024-03-15T13:38:47.923Z,16.36
2024-03-15T13:41:14.682Z,16.33
2024-03-15T13:43:42.007Z,16.44
2024-03-15T13:46:14.063Z,16.40
2024-03-15T13:48:45.475Z,16.54
2024-03-15T13:51:13.992Z,16.56
2024-03-15T13:53:41.623Z,16.76
2024-03-15T13:56:11.897Z,16.96
2024-03-15T13:58:38.319Z,16.99
2024-03-15T14:01:07.350Z,17.21
2024-03-15T14:03:34.600Z,17.21
2024-03-15T14:06:04.609Z,17.00
2024-03-15T14:08:30.984Z,17.00
2024-03-15T14:10:58.211Z,17.15
2024-03-15T14:13:24.646Z,16.85
2024-03-15T14:15:51.971Z,16.56
2024-03-15T14:18:19.721Z,16.59
2024-03-15T14:20:47.965Z,16.51
2024-03-15T14:23:14.700Z,16.44
2024-03-15T14:25:41.369Z,16.53
2024-03-15T14:28:08.590Z,16.65
2024-03-15T14:30:37.253Z,17.14
2024-03-15T14:33:04.917Z,17.15
2024-03-15T14:35:31.769Z,17.34
2024-03-15T14:37:58.256Z,17.25
2024-03-15T14:40:27.943Z,17.44
2024-03-15T14:42:55.623Z,17.27
2024-03-15T14:45:23.242Z,17.13
2024-03-15T14:47:53.014Z,17.03
2024-03-15T14:50:19.853Z,17.06
2024-03-15T14:52:47.138Z,16.97
2024-03-15T14:55:13.551Z,17.24
2024-03-15T14:57:41.250Z,17.51
2024-03-15T15:00:14.072Z,17.40
2024-03-15T15:02:40.959Z,17.11
2024-03-15T15:05:08.445Z,16.83
2024-03-15T15:07:35.132Z,17.10
2024-03-15T15:10:02.018Z,17.14
2024-03-15T15:12:28.604Z,17.21
2024-03-15T15:14:54.990Z,17.32
2024-03-15T15:17:21.601Z,17.31
2024-03-15T15:19:48.028Z,17.39
2024-03-15T15:22:17.555Z,17.39
2024-03-15T15:24:49.043Z,17.15
2024-03-15T15:27:15.901Z,17.32
2024-03-15T15:29:42.697Z,17.25
2024-03-15T15:32:09.217Z,17.15
2024-03-15T15:34:35.645Z,16.98
2024-03-15T15:37:03.330Z,17.06
2024-03-15T15:39:30.721Z,16.93
2024-03-15T15:41:57.127Z,17.10
2024-03-15T15:44:23.582Z,16.99
2024-03-15T15:46:49.986Z,17.23
2024-03-15T15:49:16.776Z,17.02
2024-03-15T15:51:44.308Z,17.13
2024-03-15T15:54:13.446Z,17.11
2024-03-15T15:56:40.113Z,16.85
2024-03-15T15:59:06.926Z,16.86
2024-03-15T16:01:38.450Z,16.64
2024-03-15T16:04:05.015Z,16.73
2024-03-15T16:06:31.443Z,16.63
2024-03-15T16:08:59.420Z,16.40
2024-03-15T16:11:25.897Z,16.22
2024-03-15T16:13:52.571Z,16.08
2024-03-15T16:16:19.124Z,16.14
2024-03-15T16:18:45.551Z,16.16
2024-03-15T16:21:12.142Z,15.85
2024-03-15T16:23:38.479Z,15.77
2024-03-15T16:26:05.015Z,15.91
2024-03-15T16:28:31.417Z,15.85
2024-03-15T16:30:58.987Z,15.90
2024-03-15T16:33:26.437Z,15.71
2024-03-15T16:35:53.131Z,15.74
2024-03-15T16:38:19.721Z,15.83
2024-03-15T16:40:49.845Z,15.77
2024-03-15T16:43:17.143Z,15.82
2024-03-15T16:45:45.504Z,15.74
2024-03-15T16:48:11.945Z,15.86
2024-03-15T16:50:38.823Z,15.84
2024-03-15T16:53:05.168Z,15.49
2024-03-15T16:55:34.455Z,15.38
2024-03-15T16:58:01.309Z,15.16
2024-03-15T17:00:28.218Z,15.23
2024-03-15T17:02:54.820Z,15.40
2024-03-15T17:05:21.279Z,15.50
2024-03-15T17:07:49.731Z,15.13
2024-03-15T17:10:16.446Z,15.14
2024-03-15T17:12:43.620Z,15.00
2024-03-15T17:15:10.991Z,14.99
2024-03-15T17:17:38.073Z,15.00
2024-03-15T17:20:05.275Z,15.06
2024-03-15T17:22:31.784Z,15.18
2024-03-15T17:24:58.203Z,15.07
2024-03-15T17:27:25.716Z,15.11
2024-03-15T17:29:55.141Z,15.10
2024-03-15T17:32:24.434Z,15.18
2024-03-15T17:34:50.934Z,15.00
2024-03-15T17:37:17.530Z,14.87
2024-03-15T17:39:45.941Z,15.05
2024-03-15T17:42:12.527Z,15.14
2024-03-15T17:44:38.923Z,14.96
2024-03-15T17:47:05.476Z,14.86
2024-03-15T17:49:33.256Z,14.91
2024-03-15T17:51:59.957Z,15.11
2024-03-15T17:54:27.491Z,14.94
2024-03-15T17:56:54.152Z,14.86
2024-03-15T17:59:20.831Z,14.97
2024-03-15T18:01:48.035Z,15.01
2024-03-15T18:04:14.653Z,14.98
2024-03-15T18:06:41.012Z,14.91
2024-03-15T18:09:13.901Z,14.16
2024-03-15T18:11:40.515Z,13.26
2024-03-15T18:14:09.229Z,12.65
2024-03-15T18:16:35.731Z,12.33
2024-03-15T18:19:02.341Z,11.96
2024-03-15T18:21:28.913Z,12.01
2024-03-15T18:23:57.765Z,11.57
2024-03-15T18:26:24.205Z,11.61
2024-03-15T18:28:50.729Z,11.54
2024-03-15T18:31:17.157Z,11.20
2024-03-15T18:33:44.057Z,11.18
2024-03-15T18:36:11.603Z,11.03
2024-03-15T18:38:38.463Z,10.94
2024-03-15T18:41:04.873Z,10.82
2024-03-15T18:43:31.350Z,10.78
2024-03-15T18:46:01.113Z,10.91
2024-03-15T18:48:28.144Z,11.01
2024-03-15T18:50:54.677Z,11.17
2024-03-15T18:53:21.080Z,11.26
2024-03-15T18:55:47.695Z,11.32
2024-03-15T18:58:14.215Z,11.38
2024-03-15T19:00:40.928Z,11.21
2024-03-15T19:03:09.468Z,11.28
2024-03-15T19:05:36.377Z,11.29
2024-03-15T19:08:02.982Z,11.43
2024-03-15T19:10:29.568Z,11.47
2024-03-15T19:12:55.996Z,11.50
2024-03-15T19:15:28.535Z,11.47
2024-03-15T19:17:55.079Z,11.38
2024-03-15T19:20:21.447Z,11.50
2024-03-15T19:22:47.989Z,11.52
2024-03-15T19:25:14.760Z,11.47
2024-03-15T19:27:41.194Z,11.39
2024-03-15T19:30:10.319Z,11.28
2024-03-15T19:32:36.733Z,11.08
2024-03-15T19:35:03.858Z,11.17
2024-03-15T19:37:30.221Z,11.04
2024-03-15T19:39:56.713Z,10.95
2024-03-15T19:42:26.098Z,11.01
2024-03-15T19:44:52.654Z,10.89
2024-03-15T19:47:19.181Z,10.84
2024-03-15T19:49:45.627Z,10.78
2024-03-15T19:52:12.540Z,10.78
2024-03-15T19:54:39.099Z,10.73
2024-03-15T19:57:05.552Z,10.75
2024-03-15T19:59:35.124Z,10.73
2024-03-15T20:02:03.694Z,10.69
2024-03-15T20:04:31.687Z,10.64
2024-03-15T20:06:59.051Z,10.66
2024-03-15T20:09:25.829Z,10.64
2024-03-15T20:11:53.136Z,10.56
2024-03-15T20:14:20.883Z,10.58
2024-03-15T20:16:50.951Z,10.57
2024-03-15T20:19:30.492Z,10.57
2024-03-15T20:21:57.086Z,10.56
2024-03-15T20:24:24.435Z,10.55
2024-03-15T20:26:50.870Z,10.53
2024-03-15T20:29:17.819Z,10.55
2024-03-15T20:31:44.817Z,10.51
2024-03-15T20:34:11.348Z,10.47
2024-03-15T20:36:39.035Z,10.51
2024-03-15T20:39:06.490Z,10.50
2024-03-15T20:41:32.889Z,10.51
2024-03-15T20:43:59.556Z,10.49
2024-03-15T20:46:26.508Z,10.49
2024-03-15T20:48:53.369Z,10.50
2024-03-15T20:51:21.699Z,10.50
2024-03-15T20:53:52.619Z,10.47
2024-03-15T20:56:20.380Z,10.51
2024-03-15T20:58:48.300Z,10.52
2024-03-15T21:01:15.331Z,10.55
2024-03-15T21:03:42.428Z,10.51
2024-03-15T21:06:09.198Z,10.49
2024-03-15T21:08:36.409Z,10.45
2024-03-15T21:11:02.891Z,10.44
2024-03-15T21:13:29.518Z,10.38
2024-03-15T21:15:56.915Z,10.41
2024-03-15T21:18:26.275Z,10.40
2024-03-15T21:20:55.646Z,10.41
2024-03-15T21:23:22.356Z,10.43
2024-03-15T21:25:50.451Z,10.49
2024-03-15T21:28:17.217Z,10.49
2024-03-15T21:30:43.787Z,10.50
2024-03-15T21:33:10.683Z,10.47
2024-03-15T21:35:37.986Z,10.43
2024-03-15T21:38:07.130Z,10.44
2024-03-15T21:40:35.747Z,10.55
2024-03-15T21:43:02.667Z,10.39
2024-03-15T21:45:29.694Z,10.41
2024-03-15T21:48:00.262Z,10.45
2024-03-15T21:50:27.922Z,10.47
2024-03-15T21:52:54.393Z,10.45
2024-03-15T21:55:22.437Z,10.43
2024-03-15T21:57:50.714Z,10.39
2024-03-15T22:00:19.442Z,10.37
2024-03-15T22:02:49.340Z,10.31
2024-03-15T22:05:15.760Z,10.28
2024-03-15T22:07:42.502Z,10.21
2024-03-15T22:10:08.904Z,10.18
2024-03-15T22:12:35.520Z,10.16
2024-03-15T22:15:01.936Z,10.18
2024-03-15T22:17:28.494Z,10.18
2024-03-15T22:19:54.999Z,10.22
2024-03-15T22:22:25.304Z,10.17
2024-03-15T22:24:55.668Z,10.16
2024-03-15T22:27:24.611Z,10.12
2024-03-15T22:29:52.221Z,10.10
2024-03-15T22:32:19.395Z,10.06
2024-03-15T22:34:45.950Z,10.02
2024-03-15T22:37:12.446Z,10.02
2024-03-15T22:39:38.897Z,10.09
2024-03-15T22:42:05.435Z,10.12
2024-03-15T22:44:32.314Z,10.11
2024-03-15T22:46:58.789Z,10.10
2024-03-15T22:49:25.404Z,10.15
2024-03-15T22:51:51.986Z,10.13
2024-03-15T22:54:21.096Z,10.13
2024-03-15T22:56:47.637Z,10.14
2024-03-15T22:59:14.178Z,10.16
2024-03-15T23:01:40.587Z,10.13
2024-03-15T23:04:10.153Z,10.14
2024-03-15T23:06:36.721Z,10.16
2024-03-15T23:09:05.885Z,10.12
2024-03-15T23:11:35.017Z,10.16
2024-03-15T23:14:01.613Z,10.25
2024-03-15T23:16:28.394Z,10.18
2024-03-15T23:18:54.964Z,10.22
2024-03-15T23:21:22.359Z,10.14
2024-03-15T23:23:51.917Z,10.06
2024-03-15T23:26:18.455Z,10.07
2024-03-15T23:28:45.514Z,10.17
2024-03-15T23:31:16.023Z,10.24
2024-03-15T23:33:42.446Z,10.19
2024-03-15T23:36:09.038Z,10.20
2024-03-15T23:38:35.395Z,10.08
2024-03-15T23:41:02.265Z,9.95
2024-03-15T23:43:30.660Z,9.84
2024-03-15T23:45:59.987Z,9.76
2024-03-15T23:48:30.211Z,9.67
2024-03-15T23:50:56.694Z,9.62
2024-03-15T23:53:23.991Z,9.59
2024-03-15T23:55:50.581Z,9.52
2024-03-15T23:58:17.134Z,9.60
